AirNav   Air Wisconsin Up To $57,000 Bonus
 
 612 users online  

51MO Plattsburg Airpark
Plattsburg, Missouri, USA

GOING TO PLATTSBURG?


FAA INFORMATION EFFECTIVE 22 APRIL 2021

Location

FAA Identifier: 51MO
Lat/Long: 39-35-40.5000N 094-27-41.1000W
39-35.675000N 094-27.685000W
39.5945833,-94.4614167
(estimated)
Elevation: 1020 ft. / 311 m (estimated)
Variation: 05E (1985)
From city: 2 miles N of PLATTSBURG, MO
Time zone: UTC -5 (UTC -6 during Standard Time)
Zip code: 64477

Airport Operations

Airport use: Private use. Permission required prior to landing
Activation date: 07/1968
Control tower: no
ARTCC: KANSAS CITY CENTER
FSS: COLUMBIA FLIGHT SERVICE STATION
Attendance: DAWN-DUSK
Wind indicator: yes
Segmented circle: no

Airport Communications

WX AWOS-3PT at EZZ (12 nm NE): 121.05 (816-933-2124)
WX AWOS-3 at GPH (17 nm SE): 120.275 (816-407-3399)

Nearby radio navigation aids

VOR radial/distance  VOR name  Freq  Var
MCIr030/22.5KANSAS CITY VORTAC113.2505E
BQSr262/27.2BRAYMER VOR/DME111.2003E
STJr128/30.7ST JOSEPH VORTAC115.5008E
ANXr326/33.7NAPOLEON VORTAC114.0007E

 
NDB name  Hdg/Dist  Freq  Var  ID
AMAZON126/26.923304EAZN .- --.. -.

Airport Services

Parking: tiedowns
Airframe service: MAJOR
Powerplant service: MAJOR
Bottled oxygen: NONE
Bulk oxygen: NONE

Runway Information

Runway 18/36

Dimensions: 2100 x 20 ft. / 640 x 6 m
Surface: turf, in fair condition
RUNWAY 18  RUNWAY 36
Latitude: 39-35.847412N39-35.501563N
Longitude: 094-27.677887W094-27.690867W
Traffic pattern: leftleft
Runway heading: 177 magnetic, 182 true357 magnetic, 002 true
Obstructions: 5 ft. fence, 40 ft. from runway, 8:1 slope to clear41 ft. trees, 423 ft. from runway, 122 ft. right of centerline, 10:1 slope to clear

Airport Ownership and Management from official FAA records

Ownership: Privately-owned
Owner: VIRGIL & JOYCE VETTER
2756 NORTHWEST Y HWY
PLATTSBURG, MO 64477
Phone (816) 592-9507
Manager: VIRGIL VETTER
2756 NORTHWEST Y HWY
PLATTSBURG, MO 64477
Phone (816) 592-9507

Airport Operational Statistics

Aircraft based on the field: 10
Single engine airplanes: 9
Multi engine airplanes: 1
    
Aircraft operations: avg 46/month *
73% transient general aviation
27% local general aviation
* for 12-month period ending 30 June 2010

Additional Remarks

WILDLIFE ON & INVOF ARPT
FOR CD CTC KANSAS CITY APCH AT 816-329-2710.

Instrument Procedures

There are no published instrument procedures at 51MO.

Some nearby airports with instrument procedures:

KEZZ - Cameron Memorial Airport (12 nm NE)
KGPH - Midwest NTL Air Center Airport (17 nm SE)
3EX - Excelsior Springs Memorial Airport (20 nm SE)
KMCI - Kansas City International Airport (21 nm SW)
KSTJ - Rosecrans Memorial Airport (23 nm NW)
 
Loc | Ops | Rwys | IFR | FBO | Links
Com | Nav | Svcs | Stats | Notes
Area around 51MO (Plattsburg Airpark)
 
Road maps at: MapQuest Bing Google
 
Aerial photo
WARNING: Photo may not be current or correct
Aerial photo of 51MO (Plattsburg Airpark)
Do you have a better or more recent aerial photo of Plattsburg Airpark that you would like to share? If so, please send us your photo.

 
Sectional chart

 
Airport distance calculator
Flying to Plattsburg Airpark? Find the distance to fly.

From to 51MO

Sunrise and sunset
Times for 12-May-2021
 Local
(UTC-5)
 Zulu
(UTC)
Morning civil twilight05:3710:37
Sunrise06:0711:07
Sunset20:2101:21
Evening civil twilight20:5101:51

Current date and time
Zulu (UTC)  12-May-2021 05:13:28
Local (UTC-5)  12-May-2021 00:13:28
 
METAR
KEZZ 
12nm NE 
120455Z AUTO 07007KT 10SM CLR 10/03 A3037 RMK AO2 T00990033
KGPH 
17nm SE 
120455Z AUTO 01004KT 10SM CLR 10/05 A3035 RMK AO2
KMCI 
22nm SW 
120453Z 05005KT 10SM OVC130 10/05 A3034 RMK AO2 SLP271 T01000050
TAF
KMCI 
22nm SW 
111726Z 1118/1218 09013KT P6SM BKN060 FM120600 06007KT P6SM SCT050 BKN100
KSTJ 
23nm NW 
111726Z 1118/1218 06009KT P6SM BKN060
NOTAMs
Click for the latest NOTAMs
NOTAMs are issued by the DoD/FAA and will open in a separate window not controlled by AirNav.

 

 
 

Would you like to see your business listed on this page?

 If your business provides an interesting product or service to pilots, flight crews, aircraft, or users of the Plattsburg Airpark, you should consider listing it here.  To start the listing process, click on the button below
 
Add a business
 

Other Pages about Plattsburg Airpark

Update a link
 
Copyright © AirNav, LLC. All rights reserved. Privacy Policy  Contact